createdAt,value
2017-10-12T00:01:56.540Z,51.19
2017-10-12T00:03:58.978Z,51.20
2017-10-12T00:06:01.476Z,51.20
2017-10-12T00:08:03.914Z,51.21
2017-10-12T00:10:06.354Z,51.19
2017-10-12T00:12:08.825Z,51.21
2017-10-12T00:14:11.251Z,51.19
2017-10-12T00:16:13.700Z,51.19
2017-10-12T00:18:16.173Z,51.19
2017-10-12T00:20:18.608Z,51.19
2017-10-12T00:22:21.037Z,51.18
2017-10-12T00:24:23.511Z,51.19
2017-10-12T00:26:26.063Z,51.18
2017-10-12T00:28:28.615Z,51.19
2017-10-12T00:30:31.093Z,51.19
2017-10-12T00:32:33.531Z,51.17
2017-10-12T00:34:35.971Z,51.16
2017-10-12T00:36:38.439Z,51.17
2017-10-12T00:38:41.000Z,51.17
2017-10-12T00:40:43.448Z,51.18
2017-10-12T00:42:45.955Z,51.17
2017-10-12T00:44:48.387Z,51.17
2017-10-12T00:46:50.902Z,51.17
2017-10-12T00:48:53.351Z,51.17
2017-10-12T00:50:55.804Z,51.18
2017-10-12T00:52:58.254Z,51.17
2017-10-12T00:55:00.768Z,51.17
2017-10-12T00:57:03.210Z,51.17
2017-10-12T00:59:05.648Z,51.17
2017-10-12T01:01:08.118Z,51.17
2017-10-12T01:03:10.572Z,51.17
2017-10-12T01:05:13.008Z,51.17
2017-10-12T01:07:15.581Z,51.18
2017-10-12T01:09:18.021Z,51.18
2017-10-12T01:11:20.458Z,51.18
2017-10-12T01:13:22.912Z,51.18
2017-10-12T01:15:25.365Z,51.18
2017-10-12T01:17:27.815Z,51.19
2017-10-12T01:19:30.300Z,51.18
2017-10-12T01:21:32.733Z,51.19
2017-10-12T01:23:35.249Z,51.19
2017-10-12T01:25:37.713Z,51.19
2017-10-12T01:27:40.301Z,51.18
2017-10-12T01:29:42.740Z,51.18
2017-10-12T01:31:45.238Z,51.18
2017-10-12T01:33:47.707Z,51.19
2017-10-12T01:35:50.165Z,51.19
2017-10-12T01:37:52.648Z,51.18
2017-10-12T01:39:55.119Z,51.18
2017-10-12T01:41:57.569Z,51.19
2017-10-12T01:44:00.028Z,51.18
2017-10-12T01:46:02.473Z,51.19
2017-10-12T01:48:04.999Z,51.19
2017-10-12T01:50:07.474Z,51.19
2017-10-12T01:52:09.910Z,51.19
2017-10-12T01:54:12.354Z,51.19
2017-10-12T01:56:14.817Z,51.20
2017-10-12T01:58:17.347Z,51.19
2017-10-12T02:00:19.819Z,51.20
2017-10-12T02:02:22.295Z,51.19
2017-10-12T02:04:24.727Z,51.19
2017-10-12T02:06:27.175Z,51.20
2017-10-12T02:08:29.703Z,51.20
2017-10-12T02:10:32.162Z,51.20
2017-10-12T02:12:34.592Z,51.20
2017-10-12T02:14:37.047Z,51.20
2017-10-12T02:16:39.568Z,51.21
2017-10-12T02:18:42.042Z,51.20
2017-10-12T02:20:44.502Z,51.20
2017-10-12T02:22:46.940Z,51.21
2017-10-12T02:24:50.343Z,51.21
2017-10-12T02:26:52.802Z,51.20
2017-10-12T02:28:55.279Z,51.21
2017-10-12T02:30:57.727Z,51.21
2017-10-12T02:33:00.197Z,51.24
2017-10-12T02:35:02.729Z,51.22
2017-10-12T02:37:05.187Z,51.22
2017-10-12T02:39:07.654Z,51.23
2017-10-12T02:41:10.103Z,51.22
2017-10-12T02:43:12.535Z,51.22
2017-10-12T02:45:15.017Z,51.22
2017-10-12T02:47:17.555Z,51.23
2017-10-12T02:49:20.001Z,51.22
2017-10-12T02:51:22.460Z,51.22
2017-10-12T02:53:24.903Z,51.23
2017-10-12T02:55:27.342Z,51.22
2017-10-12T02:57:29.905Z,51.22
2017-10-12T02:59:32.341Z,51.24
2017-10-12T03:01:34.833Z,51.24
2017-10-12T03:03:37.283Z,51.24
2017-10-12T03:05:39.717Z,51.24
2017-10-12T03:07:42.245Z,51.24
2017-10-12T03:09:44.699Z,51.24
2017-10-12T03:11:47.138Z,51.24
2017-10-12T03:13:49.641Z,51.24
2017-10-12T03:15:52.129Z,51.25
2017-10-12T03:17:54.600Z,51.25
2017-10-12T03:19:57.043Z,51.25
2017-10-12T03:21:59.512Z,51.25
2017-10-12T03:24:01.956Z,51.26
2017-10-12T03:26:04.403Z,51.26
2017-10-12T03:28:06.867Z,51.27
2017-10-12T03:30:09.545Z,51.27
2017-10-12T03:32:12.916Z,51.28
2017-10-12T03:34:15.406Z,51.28
2017-10-12T03:36:17.844Z,51.27
2017-10-12T03:38:20.287Z,51.27
2017-10-12T03:40:22.760Z,51.27
2017-10-12T03:42:25.208Z,51.27
2017-10-12T03:44:27.636Z,51.27
2017-10-12T03:46:30.174Z,51.27
2017-10-12T03:48:32.620Z,51.27
2017-10-12T03:50:35.056Z,51.27
2017-10-12T03:52:37.521Z,51.27
2017-10-12T03:54:39.982Z,51.27
2017-10-12T03:56:42.426Z,51.27
2017-10-12T03:58:44.919Z,51.27
2017-10-12T04:00:47.399Z,51.28
2017-10-12T04:02:49.843Z,51.28
2017-10-12T04:04:52.297Z,51.28
2017-10-12T04:06:54.728Z,51.29
2017-10-12T04:08:57.176Z,51.29
2017-10-12T04:10:59.710Z,51.30
2017-10-12T04:13:02.141Z,51.30
2017-10-12T04:15:04.578Z,51.30
2017-10-12T04:17:07.056Z,51.30
2017-10-12T04:19:09.493Z,51.30
2017-10-12T04:21:11.989Z,51.30
2017-10-12T04:23:14.452Z,51.30
2017-10-12T04:25:16.919Z,51.31
2017-10-12T04:27:19.404Z,51.31
2017-10-12T04:29:21.867Z,51.31
2017-10-12T04:31:24.458Z,51.31
2017-10-12T04:33:26.918Z,51.31
2017-10-12T04:35:29.379Z,51.31
2017-10-12T04:37:31.826Z,51.31
2017-10-12T04:39:34.270Z,51.31
2017-10-12T04:41:36.805Z,51.31
2017-10-12T04:43:40.441Z,51.31
2017-10-12T04:45:42.912Z,51.31
2017-10-12T04:47:45.381Z,51.31
2017-10-12T04:49:47.908Z,51.31
2017-10-12T04:51:50.343Z,51.32
2017-10-12T04:53:53.760Z,51.32
2017-10-12T04:55:56.239Z,51.33
2017-10-12T04:57:59.415Z,51.33
2017-10-12T05:00:01.872Z,51.34
2017-10-12T05:02:04.310Z,51.33
2017-10-12T05:04:06.812Z,51.34
2017-10-12T05:06:09.284Z,51.34
2017-10-12T05:08:11.721Z,51.34
2017-10-12T05:10:14.151Z,51.34
2017-10-12T05:12:16.625Z,51.35
2017-10-12T05:14:19.076Z,51.35
2017-10-12T05:16:21.513Z,51.35
2017-10-12T05:18:24.028Z,51.35
2017-10-12T05:20:26.509Z,51.35
2017-10-12T05:22:28.946Z,51.36
2017-10-12T05:24:31.410Z,51.37
2017-10-12T05:26:33.852Z,51.36
2017-10-12T05:28:36.311Z,51.37
2017-10-12T05:30:38.773Z,51.37
2017-10-12T05:32:41.388Z,51.38
2017-10-12T05:34:43.864Z,51.37
2017-10-12T05:36:46.334Z,51.38
2017-10-12T05:38:48.825Z,51.36
2017-10-12T05:40:51.304Z,51.35
2017-10-12T05:42:53.836Z,51.36
2017-10-12T05:44:57.269Z,51.36
2017-10-12T05:46:59.704Z,51.36
2017-10-12T05:49:02.162Z,51.35
2017-10-12T05:51:04.613Z,51.35
2017-10-12T05:53:07.505Z,51.34
2017-10-12T05:55:10.062Z,51.33
2017-10-12T05:57:12.490Z,51.33
2017-10-12T05:59:14.962Z,51.33
2017-10-12T06:01:17.436Z,51.34
2017-10-12T06:03:19.967Z,51.33
2017-10-12T06:05:22.421Z,51.33
2017-10-12T06:07:24.956Z,51.32
2017-10-12T06:09:27.437Z,51.32
2017-10-12T06:11:29.878Z,51.32
2017-10-12T06:13:32.340Z,51.32
2017-10-12T06:15:34.791Z,51.32
2017-10-12T06:17:37.225Z,51.31
2017-10-12T06:19:39.689Z,51.34
2017-10-12T06:21:42.241Z,51.40
2017-10-12T06:23:44.711Z,51.45
2017-10-12T06:25:47.178Z,51.45
2017-10-12T06:27:49.653Z,51.50
2017-10-12T06:29:52.101Z,51.48
2017-10-12T06:31:54.582Z,51.54
2017-10-12T06:33:57.233Z,51.52
2017-10-12T06:35:59.697Z,51.46
2017-10-12T06:38:02.152Z,51.45
2017-10-12T06:40:04.704Z,51.45
2017-10-12T06:42:07.151Z,51.44
2017-10-12T06:44:09.641Z,51.36
2017-10-12T06:46:12.080Z,51.34
2017-10-12T06:48:14.514Z,51.29
2017-10-12T06:50:17.027Z,51.23
2017-10-12T06:52:19.489Z,51.25
2017-10-12T06:54:21.927Z,51.18
2017-10-12T06:56:24.457Z,51.21
2017-10-12T06:58:26.917Z,51.19
2017-10-12T07:00:29.382Z,51.14
2017-10-12T07:02:31.885Z,51.13
2017-10-12T07:04:34.315Z,51.11
2017-10-12T07:06:36.784Z,51.09
2017-10-12T07:08:39.251Z,51.07
2017-10-12T07:10:41.749Z,51.05
2017-10-12T07:12:44.183Z,51.04
2017-10-12T07:14:46.649Z,51.02
2017-10-12T07:16:49.076Z,51.01
2017-10-12T07:18:51.534Z,51.01
2017-10-12T07:20:54.053Z,50.98
2017-10-12T07:22:56.547Z,50.96
2017-10-12T07:24:59.020Z,50.94
2017-10-12T07:27:01.509Z,50.92
2017-10-12T07:29:04.049Z,50.91
2017-10-12T07:31:06.506Z,50.91
2017-10-12T07:33:08.965Z,50.89
2017-10-12T07:35:11.440Z,50.87
2017-10-12T07:37:13.945Z,50.86
2017-10-12T07:39:16.416Z,50.82
2017-10-12T07:41:18.859Z,50.80
2017-10-12T07:43:22.276Z,50.79
2017-10-12T07:45:24.742Z,50.78
2017-10-12T07:47:27.186Z,50.81
2017-10-12T07:49:29.687Z,50.83
2017-10-12T07:51:32.160Z,50.86
2017-10-12T07:53:34.612Z,50.86
2017-10-12T07:55:37.092Z,50.88
2017-10-12T07:57:39.569Z,50.88
2017-10-12T07:59:42.052Z,50.86
2017-10-12T08:01:44.529Z,50.86
2017-10-12T08:03:47.013Z,50.85
2017-10-12T08:05:49.456Z,50.83
2017-10-12T08:07:51.894Z,50.83
2017-10-12T08:09:54.429Z,50.85
2017-10-12T08:11:56.868Z,50.82
2017-10-12T08:13:59.326Z,50.77
2017-10-12T08:16:01.829Z,50.79
2017-10-12T08:18:04.371Z,50.72
2017-10-12T08:20:06.846Z,50.78
2017-10-12T08:22:09.422Z,50.73
2017-10-12T08:24:11.858Z,50.80
2017-10-12T08:26:14.291Z,50.83
2017-10-12T08:28:16.740Z,50.87
2017-10-12T08:30:19.201Z,50.86
2017-10-12T08:32:21.722Z,50.87
2017-10-12T08:34:24.182Z,50.84
2017-10-12T08:36:26.801Z,50.82
2017-10-12T08:38:29.248Z,50.79
2017-10-12T08:40:31.739Z,50.76
2017-10-12T08:42:34.171Z,50.74
2017-10-12T08:44:36.601Z,50.73
2017-10-12T08:46:39.149Z,50.71
2017-10-12T08:48:42.508Z,50.69
2017-10-12T08:50:44.980Z,50.68
2017-10-12T08:52:47.462Z,50.67
2017-10-12T08:54:49.894Z,50.66
2017-10-12T08:56:52.331Z,50.64
2017-10-12T08:58:55.712Z,50.66
2017-10-12T09:00:58.252Z,50.68
2017-10-12T09:03:00.947Z,50.66
2017-10-12T09:05:03.541Z,50.65
2017-10-12T09:07:05.981Z,50.63
2017-10-12T09:09:08.495Z,50.64
2017-10-12T09:11:10.985Z,50.65
2017-10-12T09:13:13.420Z,50.64
2017-10-12T09:15:15.886Z,50.62
2017-10-12T09:17:18.627Z,50.57
2017-10-12T09:19:21.078Z,50.57
2017-10-12T09:21:23.520Z,50.55
2017-10-12T09:23:26.000Z,50.60
2017-10-12T09:25:28.472Z,50.56
2017-10-12T09:27:30.907Z,50.63
2017-10-12T09:29:33.448Z,50.71
2017-10-12T09:31:35.941Z,50.76
2017-10-12T09:33:38.381Z,50.76
2017-10-12T09:35:41.352Z,50.76
2017-10-12T09:37:43.865Z,50.76
2017-10-12T09:39:46.301Z,50.78
2017-10-12T09:41:48.796Z,50.74
2017-10-12T09:43:52.192Z,50.73
2017-10-12T09:45:55.571Z,50.67
2017-10-12T09:47:58.073Z,50.63
2017-10-12T09:50:00.513Z,50.64
2017-10-12T09:52:03.012Z,50.59
2017-10-12T09:54:05.550Z,50.60
2017-10-12T09:56:08.051Z,50.59
2017-10-12T09:58:10.484Z,50.59
2017-10-12T10:00:12.943Z,50.59
2017-10-12T10:02:15.468Z,50.61
2017-10-12T10:04:17.928Z,50.63
2017-10-12T10:06:20.390Z,50.60
2017-10-12T10:08:22.866Z,50.62
2017-10-12T10:10:25.325Z,50.65
2017-10-12T10:12:27.797Z,50.65
2017-10-12T10:14:30.236Z,50.72
2017-10-12T10:16:32.767Z,50.69
2017-10-12T10:18:35.333Z,50.76
2017-10-12T10:20:37.886Z,50.82
2017-10-12T10:22:40.333Z,50.84
2017-10-12T10:24:42.807Z,50.87
2017-10-12T10:26:45.239Z,50.90
2017-10-12T10:28:47.684Z,50.94
2017-10-12T10:30:50.149Z,50.92
2017-10-12T10:32:52.626Z,50.91
2017-10-12T10:34:55.065Z,50.90
2017-10-12T10:36:57.528Z,50.94
2017-10-12T10:39:00.077Z,50.97
2017-10-12T10:41:02.536Z,50.97
2017-10-12T10:43:04.992Z,50.99
2017-10-12T10:45:07.444Z,51.02
2017-10-12T10:47:09.921Z,51.02
2017-10-12T10:49:12.380Z,51.05
2017-10-12T10:51:14.821Z,51.04
2017-10-12T10:53:17.252Z,51.05
2017-10-12T10:55:19.963Z,51.06
2017-10-12T10:57:22.514Z,51.07
2017-10-12T10:59:24.954Z,51.06
2017-10-12T11:01:27.416Z,51.05
2017-10-12T11:03:29.860Z,51.05
2017-10-12T11:05:32.357Z,50.96
2017-10-12T11:07:34.937Z,51.00
2017-10-12T11:09:37.384Z,51.00
2017-10-12T11:11:39.864Z,50.97
2017-10-12T11:13:42.327Z,51.14
2017-10-12T11:15:44.777Z,51.14
2017-10-12T11:17:47.207Z,51.17
2017-10-12T11:19:49.663Z,51.54
2017-10-12T11:21:52.110Z,51.39
2017-10-12T11:23:54.546Z,51.41
2017-10-12T11:25:57.009Z,51.46
2017-10-12T11:27:59.523Z,51.42
2017-10-12T11:30:01.965Z,51.45
2017-10-12T11:32:04.480Z,51.51
2017-10-12T11:34:06.917Z,51.59
2017-10-12T11:36:09.409Z,51.56
2017-10-12T11:38:11.985Z,51.54
2017-10-12T11:40:14.518Z,51.48
2017-10-12T11:42:17.022Z,51.40
2017-10-12T11:44:19.592Z,51.39
2017-10-12T11:46:22.033Z,51.36
2017-10-12T11:48:25.355Z,51.47
2017-10-12T11:50:27.833Z,51.48
2017-10-12T11:54:32.033Z,51.51
2017-10-12T11:56:34.509Z,51.50
2017-10-12T11:58:37.118Z,51.53
2017-10-12T12:00:39.564Z,51.57
2017-10-12T12:02:42.051Z,51.58
2017-10-12T12:04:44.497Z,51.58
2017-10-12T12:06:46.938Z,51.56
2017-10-12T12:08:49.442Z,51.52
2017-10-12T12:10:51.881Z,51.48
2017-10-12T12:12:54.403Z,51.45
2017-10-12T12:14:56.866Z,51.42
2017-10-12T12:16:59.349Z,51.35
2017-10-12T12:19:01.908Z,51.23
2017-10-12T12:21:04.423Z,50.86
2017-10-12T12:23:06.871Z,50.52
2017-10-12T12:25:09.305Z,50.23
2017-10-12T12:27:11.825Z,50.06
2017-10-12T12:29:14.271Z,49.76
2017-10-12T12:31:16.839Z,49.91
2017-10-12T12:33:19.309Z,49.60
2017-10-12T12:35:21.744Z,49.47
2017-10-12T12:37:24.233Z,49.33
2017-10-12T12:39:26.690Z,49.21
2017-10-12T12:41:29.346Z,49.13
2017-10-12T12:43:31.849Z,48.95
2017-10-12T12:45:34.432Z,48.85
2017-10-12T12:47:36.885Z,48.73
2017-10-12T12:49:39.316Z,48.53
2017-10-12T12:51:41.784Z,48.38
2017-10-12T12:53:44.224Z,48.36
2017-10-12T12:55:46.660Z,48.36
2017-10-12T12:57:49.125Z,48.16
2017-10-12T12:59:51.692Z,47.95
2017-10-12T13:01:55.065Z,47.69
2017-10-12T13:03:57.619Z,47.50
2017-10-12T13:06:00.065Z,47.45
2017-10-12T13:08:02.509Z,47.30
2017-10-12T13:10:05.016Z,47.35
2017-10-12T13:12:07.472Z,47.15
2017-10-12T13:14:09.961Z,47.12
2017-10-12T13:16:12.418Z,47.09
2017-10-12T13:18:14.882Z,46.95
2017-10-12T13:20:17.334Z,46.87
2017-10-12T13:22:19.797Z,46.79
2017-10-12T13:24:22.275Z,46.88
2017-10-12T13:26:24.721Z,47.01
2017-10-12T13:28:27.202Z,47.08
2017-10-12T13:30:29.682Z,47.22
2017-10-12T13:32:32.171Z,47.34
2017-10-12T13:34:34.727Z,47.47
2017-10-12T13:36:37.162Z,47.57
2017-10-12T13:38:39.656Z,47.64
2017-10-12T13:40:42.141Z,47.78
2017-10-12T13:42:44.708Z,47.81
2017-10-12T13:44:47.162Z,47.90
2017-10-12T13:46:49.625Z,47.94
2017-10-12T13:48:52.115Z,48.03
2017-10-12T13:50:54.605Z,48.06
2017-10-12T13:52:57.160Z,48.12
2017-10-12T13:54:59.632Z,48.19
2017-10-12T13:57:02.091Z,48.20
2017-10-12T13:59:04.564Z,48.26
2017-10-12T14:01:07.045Z,48.30
2017-10-12T14:03:09.489Z,48.30
2017-10-12T14:05:11.967Z,48.37
2017-10-12T14:07:14.444Z,48.44
2017-10-12T14:09:16.896Z,48.50
2017-10-12T14:11:19.357Z,48.51
2017-10-12T14:13:21.819Z,48.54
2017-10-12T14:15:24.326Z,48.58
2017-10-12T14:17:26.800Z,48.61
2017-10-12T14:19:29.270Z,48.63
2017-10-12T14:21:31.705Z,48.68
2017-10-12T14:23:34.169Z,48.69
2017-10-12T14:25:36.645Z,48.71
2017-10-12T14:27:39.080Z,48.74
2017-10-12T14:29:42.453Z,48.79
2017-10-12T14:31:44.917Z,48.80
2017-10-12T14:33:47.381Z,48.82
2017-10-12T14:35:49.857Z,48.84
2017-10-12T14:37:52.344Z,48.86
2017-10-12T14:39:54.797Z,48.90
2017-10-12T14:41:57.262Z,48.91
2017-10-12T14:43:59.898Z,48.95
2017-10-12T14:46:02.345Z,48.97
2017-10-12T14:48:04.813Z,48.98
2017-10-12T14:50:07.261Z,49.00
2017-10-12T14:52:09.692Z,49.04
2017-10-12T14:54:12.191Z,49.02
2017-10-12T14:56:14.717Z,49.05
2017-10-12T14:58:17.168Z,49.08
2017-10-12T15:00:19.647Z,49.09
2017-10-12T15:02:22.088Z,49.13
2017-10-12T15:04:24.536Z,49.15
2017-10-12T15:06:27.010Z,49.17
2017-10-12T15:08:29.445Z,49.21
2017-10-12T15:10:31.889Z,49.21
2017-10-12T15:12:34.365Z,49.27
2017-10-12T15:14:37.796Z,49.30
2017-10-12T15:16:40.308Z,49.32
2017-10-12T15:18:42.770Z,49.33
2017-10-12T15:20:45.236Z,49.36
2017-10-12T15:22:47.669Z,49.37
2017-10-12T15:24:50.156Z,49.36
2017-10-12T15:26:52.605Z,49.43
2017-10-12T15:28:55.099Z,49.41
2017-10-12T15:30:57.570Z,49.41
2017-10-12T15:33:00.102Z,49.43
2017-10-12T15:35:02.570Z,49.44
2017-10-12T15:37:05.094Z,49.44
2017-10-12T15:39:07.553Z,49.46
2017-10-12T15:41:09.996Z,49.46
2017-10-12T15:43:13.412Z,49.47
2017-10-12T15:45:15.932Z,49.47
2017-10-12T15:47:18.436Z,49.48
2017-10-12T15:49:20.903Z,49.49
2017-10-12T15:51:23.357Z,49.50
2017-10-12T15:53:25.844Z,49.51
2017-10-12T15:55:28.316Z,49.52
2017-10-12T15:57:30.812Z,49.56
2017-10-12T15:59:33.648Z,49.57
2017-10-12T16:01:36.270Z,49.57
2017-10-12T16:03:38.715Z,49.59
2017-10-12T16:05:41.204Z,49.63
2017-10-12T16:07:43.697Z,49.66
2017-10-12T16:09:46.133Z,49.69
2017-10-12T16:11:48.684Z,49.72
2017-10-12T16:13:51.172Z,49.73
2017-10-12T16:15:53.641Z,49.74
2017-10-12T16:17:56.092Z,49.77
2017-10-12T16:19:58.565Z,49.81
2017-10-12T16:22:01.007Z,49.82
2017-10-12T16:24:03.458Z,49.83
2017-10-12T16:26:05.936Z,49.84
2017-10-12T16:28:08.545Z,49.84
2017-10-12T16:30:11.009Z,49.78
2017-10-12T16:32:13.510Z,49.75
2017-10-12T16:34:15.962Z,49.78
2017-10-12T16:36:18.420Z,49.81
2017-10-12T16:38:21.011Z,49.83
2017-10-12T16:40:23.514Z,49.85
2017-10-12T16:42:25.960Z,49.86
2017-10-12T16:44:28.466Z,49.89
2017-10-12T16:46:31.089Z,49.89
2017-10-12T16:48:33.549Z,49.93
2017-10-12T16:52:38.494Z,49.95
2017-10-12T16:54:40.948Z,49.98
2017-10-12T16:56:43.429Z,49.99
2017-10-12T16:58:45.875Z,50.00
2017-10-12T17:00:48.320Z,50.02
2017-10-12T17:02:50.816Z,50.05
2017-10-12T17:04:53.316Z,50.07
2017-10-12T17:06:55.805Z,50.09
2017-10-12T17:08:58.276Z,50.10
2017-10-12T17:11:00.719Z,50.12
2017-10-12T17:13:04.128Z,50.15
2017-10-12T17:15:06.614Z,50.17
2017-10-12T17:17:09.107Z,50.20
2017-10-12T17:19:11.553Z,50.21
2017-10-12T17:21:14.021Z,50.23
2017-10-12T17:23:16.567Z,50.25
2017-10-12T17:25:19.001Z,50.26
2017-10-12T17:27:21.504Z,50.27
2017-10-12T17:29:23.953Z,50.30
2017-10-12T17:31:26.504Z,50.31
2017-10-12T17:33:28.976Z,50.33
2017-10-12T17:35:31.435Z,50.34
2017-10-12T17:37:33.888Z,50.34
2017-10-12T17:39:36.382Z,50.35
2017-10-12T17:41:38.833Z,50.36
2017-10-12T17:43:41.270Z,50.38
2017-10-12T17:45:43.736Z,50.41
2017-10-12T17:47:46.365Z,50.42
2017-10-12T17:49:48.815Z,50.43
2017-10-12T17:51:51.387Z,50.43
2017-10-12T17:53:53.827Z,50.44
2017-10-12T17:55:56.281Z,50.44
2017-10-12T17:57:58.766Z,50.46
2017-10-12T18:00:01.201Z,50.46
2017-10-12T18:02:03.667Z,50.48
2017-10-12T18:04:06.133Z,50.49
2017-10-12T18:06:08.568Z,50.50
2017-10-12T18:08:11.026Z,50.51
2017-10-12T18:10:13.538Z,50.53
2017-10-12T18:12:22.934Z,50.55
2017-10-12T18:14:18.509Z,50.56
2017-10-12T18:16:21.040Z,50.57
2017-10-12T18:18:23.512Z,50.58
2017-10-12T18:20:25.965Z,50.59
2017-10-12T18:22:28.422Z,50.61
2017-10-12T18:26:33.396Z,50.64
2017-10-12T18:28:35.874Z,50.65
2017-10-12T18:30:38.303Z,50.66
2017-10-12T18:32:40.742Z,50.67
2017-10-12T18:34:43.214Z,50.68
2017-10-12T18:36:45.737Z,50.69
2017-10-12T18:38:48.172Z,50.72
2017-10-12T18:40:51.046Z,50.72
2017-10-12T18:42:55.703Z,50.74
2017-10-12T18:44:58.209Z,50.75
2017-10-12T18:47:00.679Z,50.76
2017-10-12T18:49:03.793Z,50.76
2017-10-12T18:51:06.264Z,50.77
2017-10-12T18:53:08.737Z,50.77
2017-10-12T18:55:11.256Z,50.78
2017-10-12T18:57:13.690Z,50.78
2017-10-12T18:59:16.155Z,50.79
2017-10-12T19:01:18.663Z,50.80
2017-10-12T19:03:21.109Z,50.80
2017-10-12T19:05:24.772Z,50.80
2017-10-12T19:07:28.576Z,50.80
2017-10-12T19:09:32.030Z,50.81
2017-10-12T19:11:36.041Z,50.82
2017-10-12T19:13:39.067Z,50.82
2017-10-12T19:15:42.465Z,50.83
2017-10-12T19:17:46.230Z,50.84
2017-10-12T19:19:50.230Z,50.81
2017-10-12T19:21:54.575Z,50.84
2017-10-12T19:23:57.871Z,50.85
2017-10-12T19:26:00.853Z,50.86
2017-10-12T19:30:08.798Z,50.86
2017-10-12T19:32:11.397Z,50.87
2017-10-12T19:34:13.957Z,50.86
2017-10-12T19:36:16.425Z,50.86
2017-10-12T19:38:18.925Z,50.86
2017-10-12T19:40:21.373Z,50.86
2017-10-12T19:42:23.878Z,50.86
2017-10-12T19:44:26.317Z,50.87
2017-10-12T19:46:28.751Z,50.87
2017-10-12T19:48:31.232Z,50.87
2017-10-12T19:50:33.881Z,50.85
2017-10-12T19:52:36.323Z,50.85
2017-10-12T19:54:38.796Z,50.86
2017-10-12T19:56:41.244Z,50.85
2017-10-12T20:00:46.211Z,50.85
2017-10-12T20:02:48.648Z,50.85
2017-10-12T20:04:51.081Z,50.87
2017-10-12T20:06:53.609Z,50.85
2017-10-12T20:08:56.051Z,50.86
2017-10-12T20:10:58.483Z,50.86
2017-10-12T20:13:00.953Z,50.86
2017-10-12T20:15:03.384Z,50.86
2017-10-12T20:17:05.836Z,50.85
2017-10-12T20:19:08.309Z,50.85
2017-10-12T20:21:10.750Z,50.85
2017-10-12T20:23:13.224Z,50.86
2017-10-12T20:25:15.725Z,50.87
2017-10-12T20:27:18.161Z,50.86
2017-10-12T20:29:35.576Z,50.87
2017-10-12T20:31:23.112Z,50.86
2017-10-12T20:33:25.550Z,50.87
2017-10-12T20:35:27.989Z,50.87
2017-10-12T20:37:30.465Z,50.86
2017-10-12T20:39:32.910Z,50.87
2017-10-12T20:41:35.406Z,50.86
2017-10-12T20:43:37.884Z,50.87
2017-10-12T20:45:40.332Z,50.87
2017-10-12T20:47:42.793Z,50.87
2017-10-12T20:49:45.278Z,50.87
2017-10-12T20:51:47.888Z,50.86
2017-10-12T20:53:50.326Z,50.86
2017-10-12T20:55:52.790Z,50.87
2017-10-12T20:57:55.334Z,50.87
2017-10-12T20:59:57.833Z,50.86
2017-10-12T21:02:00.300Z,50.86
2017-10-12T21:04:02.740Z,50.86
2017-10-12T21:06:05.174Z,50.86
2017-10-12T21:08:07.648Z,50.86
2017-10-12T21:10:10.096Z,50.87
2017-10-12T21:12:12.535Z,50.87
2017-10-12T21:14:15.002Z,50.87
2017-10-12T21:16:17.435Z,50.87
2017-10-12T21:18:19.872Z,50.87
2017-10-12T21:20:22.400Z,50.86
2017-10-12T21:22:24.835Z,50.87
2017-10-12T21:24:27.361Z,50.88
2017-10-12T21:26:29.926Z,50.88
2017-10-12T21:28:32.401Z,50.88
2017-10-12T21:30:34.857Z,50.88
2017-10-12T21:32:37.352Z,50.88
2017-10-12T21:34:39.779Z,50.88
2017-10-12T21:36:42.220Z,50.88
2017-10-12T21:38:44.688Z,50.88
2017-10-12T21:40:47.128Z,50.88
2017-10-12T21:42:49.673Z,50.88
2017-10-12T21:44:52.139Z,50.88
2017-10-12T21:46:54.575Z,50.88
2017-10-12T21:48:57.034Z,50.88
2017-10-12T21:50:59.578Z,50.88
2017-10-12T21:53:02.089Z,50.88
2017-10-12T21:55:04.529Z,50.88
2017-10-12T21:59:15.837Z,50.89
2017-10-12T22:01:18.285Z,50.89
2017-10-12T22:03:20.990Z,50.89
2017-10-12T22:05:23.439Z,50.89
2017-10-12T22:07:26.032Z,50.90
2017-10-12T22:09:28.604Z,50.89
2017-10-12T22:11:31.039Z,50.90
2017-10-12T22:13:33.483Z,50.91
2017-10-12T22:15:35.948Z,50.91
2017-10-12T22:17:38.390Z,50.91
2017-10-12T22:19:40.892Z,50.91
2017-10-12T22:21:43.348Z,50.91
2017-10-12T22:23:45.787Z,50.91
2017-10-12T22:25:48.225Z,50.92
2017-10-12T22:27:50.773Z,50.92
2017-10-12T22:29:53.204Z,50.92
2017-10-12T22:31:55.717Z,50.92
2017-10-12T22:33:58.276Z,50.92
2017-10-12T22:36:00.745Z,50.91
2017-10-12T22:38:03.196Z,50.91
2017-10-12T22:40:05.702Z,50.89
2017-10-12T22:42:08.176Z,50.91
2017-10-12T22:44:10.652Z,50.89
2017-10-12T22:46:13.213Z,50.89
2017-10-12T22:48:15.651Z,50.89
2017-10-12T22:50:18.092Z,50.89
2017-10-12T22:52:20.597Z,50.89
2017-10-12T22:54:23.150Z,50.89
2017-10-12T22:56:25.600Z,50.91
2017-10-12T22:58:28.065Z,50.90
2017-10-12T23:00:30.501Z,50.90
2017-10-12T23:02:32.973Z,50.91
2017-10-12T23:04:35.436Z,50.91
2017-10-12T23:06:37.914Z,50.90
2017-10-12T23:08:40.364Z,50.90
2017-10-12T23:10:42.837Z,50.91
2017-10-12T23:12:45.282Z,50.91
2017-10-12T23:14:47.712Z,50.92
2017-10-12T23:16:50.199Z,50.92
2017-10-12T23:18:52.641Z,50.92
2017-10-12T23:20:55.129Z,50.92
2017-10-12T23:22:57.600Z,50.92
2017-10-12T23:25:00.040Z,50.93
2017-10-12T23:27:02.477Z,50.92
2017-10-12T23:29:04.960Z,50.93
2017-10-12T23:31:07.423Z,50.93
2017-10-12T23:33:09.856Z,50.94
2017-10-12T23:35:12.404Z,50.94
2017-10-12T23:37:14.838Z,50.94
2017-10-12T23:39:17.278Z,50.95
2017-10-12T23:41:19.748Z,50.95
2017-10-12T23:43:22.185Z,50.95
2017-10-12T23:45:24.632Z,50.94
2017-10-12T23:47:27.120Z,50.94
2017-10-12T23:49:29.563Z,50.94
2017-10-12T23:51:31.997Z,50.94
2017-10-12T23:53:34.459Z,50.94
2017-10-12T23:55:36.891Z,50.94
2017-10-12T23:57:39.327Z,50.95
2017-10-12T23:59:41.786Z,50.95
